createdAt,value
2023-03-31T00:01:42.743Z,7.96
2023-03-31T00:04:13.928Z,7.92
2023-03-31T00:06:43.510Z,7.89
2023-03-31T00:09:14.190Z,7.86
2023-03-31T00:11:42.982Z,7.82
2023-03-31T00:14:12.009Z,7.80
2023-03-31T00:16:40.765Z,7.77
2023-03-31T00:19:18.401Z,7.74
2023-03-31T00:21:51.664Z,7.69
2023-03-31T00:24:20.520Z,7.70
2023-03-31T00:26:49.271Z,7.68
2023-03-31T00:29:18.826Z,7.63
2023-03-31T00:31:47.910Z,7.59
2023-03-31T00:34:16.723Z,7.57
2023-03-31T00:36:47.698Z,7.55
2023-03-31T00:39:20.378Z,7.51
2023-03-31T00:41:49.210Z,7.48
2023-03-31T00:44:22.904Z,7.44
2023-03-31T00:46:56.302Z,7.40
2023-03-31T00:49:31.363Z,7.35
2023-03-31T00:52:05.316Z,7.31
2023-03-31T00:54:38.020Z,7.28
2023-03-31T00:57:08.294Z,7.25
2023-03-31T00:59:40.269Z,7.23
2023-03-31T01:02:10.270Z,7.23
2023-03-31T01:04:45.751Z,7.21
2023-03-31T01:07:19.632Z,7.18
2023-03-31T01:09:51.662Z,7.16
2023-03-31T01:12:20.485Z,7.15
2023-03-31T01:14:51.409Z,7.12
2023-03-31T01:17:22.444Z,7.11
2023-03-31T01:20:11.695Z,7.06
2023-03-31T01:23:24.820Z,7.03
2023-03-31T01:26:20.788Z,7.02
2023-03-31T01:28:52.399Z,6.96
2023-03-31T01:31:40.861Z,6.89
2023-03-31T01:34:47.425Z,6.81
2023-03-31T01:38:06.303Z,6.71
2023-03-31T01:41:20.003Z,6.61
2023-03-31T01:43:55.347Z,6.51
2023-03-31T01:46:30.012Z,6.49
2023-03-31T01:49:07.966Z,6.53
2023-03-31T01:51:44.072Z,6.57
2023-03-31T01:54:22.949Z,6.62
2023-03-31T01:56:57.982Z,6.69
2023-03-31T01:59:31.533Z,6.74
2023-03-31T02:02:05.102Z,6.78
2023-03-31T02:04:38.719Z,6.81
2023-03-31T02:07:12.196Z,6.88
2023-03-31T02:09:45.537Z,6.94
2023-03-31T02:12:15.467Z,6.97
2023-03-31T02:14:49.330Z,6.98
2023-03-31T02:17:23.126Z,7.01
2023-03-31T02:19:54.910Z,7.05
2023-03-31T02:22:25.072Z,7.08
2023-03-31T02:24:55.359Z,7.10
2023-03-31T02:27:27.479Z,7.09
2023-03-31T02:29:58.148Z,7.09
2023-03-31T02:32:32.667Z,7.08
2023-03-31T02:35:02.056Z,7.03
2023-03-31T02:37:32.486Z,6.94
2023-03-31T02:40:09.000Z,6.79
2023-03-31T02:42:38.334Z,6.65
2023-03-31T02:45:40.489Z,6.57
2023-03-31T02:48:16.332Z,6.49
2023-03-31T02:51:18.700Z,6.40
2023-03-31T02:54:09.699Z,6.30
2023-03-31T02:56:53.782Z,6.24
2023-03-31T02:59:35.281Z,6.20
2023-03-31T03:02:17.481Z,6.17
2023-03-31T03:05:09.989Z,6.16
2023-03-31T03:07:48.286Z,6.12
2023-03-31T03:10:23.441Z,6.07
2023-03-31T03:12:59.419Z,6.03
2023-03-31T03:15:32.334Z,5.96
2023-03-31T03:18:04.102Z,5.90
2023-03-31T03:20:34.098Z,5.81
2023-03-31T03:23:02.544Z,5.73
2023-03-31T03:25:31.489Z,5.64
2023-03-31T03:28:00.905Z,5.56
2023-03-31T03:30:29.455Z,5.45
2023-03-31T03:32:59.122Z,5.44
2023-03-31T03:35:29.420Z,5.53
2023-03-31T03:37:58.109Z,5.61
2023-03-31T03:40:26.644Z,5.66
2023-03-31T03:42:56.351Z,5.66
2023-03-31T03:45:25.102Z,5.65
2023-03-31T03:47:55.328Z,5.73
2023-03-31T03:50:24.398Z,5.73
2023-03-31T03:52:55.992Z,5.71
2023-03-31T03:55:31.389Z,5.70
2023-03-31T03:58:00.498Z,5.65
2023-03-31T04:00:29.304Z,5.64
2023-03-31T04:02:58.798Z,5.61
2023-03-31T04:05:27.633Z,5.66
2023-03-31T04:08:00.961Z,5.67
2023-03-31T04:10:29.548Z,5.71
2023-03-31T04:12:58.021Z,5.79
2023-03-31T04:15:26.807Z,5.94
2023-03-31T04:17:58.462Z,6.12
2023-03-31T04:20:27.903Z,6.29
2023-03-31T04:22:56.873Z,6.54
2023-03-31T04:25:26.534Z,6.73
2023-03-31T04:27:56.117Z,6.87
2023-03-31T04:30:31.113Z,6.96
2023-03-31T04:33:02.788Z,7.05
2023-03-31T04:35:42.867Z,7.10
2023-03-31T04:38:11.912Z,7.13
2023-03-31T04:40:42.442Z,7.12
2023-03-31T04:43:11.332Z,7.08
2023-03-31T04:45:40.140Z,7.01
2023-03-31T04:48:10.711Z,6.95
2023-03-31T04:50:39.479Z,6.90
2023-03-31T04:53:08.553Z,6.92
2023-03-31T04:55:37.317Z,6.95
2023-03-31T04:58:07.544Z,6.95
2023-03-31T05:00:36.007Z,7.01
2023-03-31T05:03:04.954Z,7.09
2023-03-31T05:05:33.953Z,7.18
2023-03-31T05:08:03.117Z,7.28
2023-03-31T05:10:32.545Z,7.34
2023-03-31T05:13:01.311Z,7.38
2023-03-31T05:15:31.491Z,7.46
2023-03-31T05:18:01.522Z,7.51
2023-03-31T05:20:30.888Z,7.54
2023-03-31T05:22:59.609Z,7.59
2023-03-31T05:25:32.856Z,7.63
2023-03-31T05:28:02.518Z,7.66
2023-03-31T05:30:33.206Z,7.64
2023-03-31T05:33:02.164Z,7.68
2023-03-31T05:35:31.210Z,7.72
2023-03-31T05:38:00.046Z,7.75
2023-03-31T05:40:28.978Z,7.76
2023-03-31T05:42:57.761Z,7.80
2023-03-31T05:45:26.477Z,7.88
2023-03-31T05:47:56.777Z,7.90
2023-03-31T05:50:25.838Z,7.89
2023-03-31T05:52:54.454Z,7.89
2023-03-31T05:55:23.319Z,7.92
2023-03-31T05:57:51.878Z,7.95
2023-03-31T06:00:21.518Z,8.00
2023-03-31T06:02:51.510Z,8.08
2023-03-31T06:05:23.100Z,8.13
2023-03-31T06:07:51.905Z,8.18
2023-03-31T06:10:20.730Z,8.23
2023-03-31T06:12:50.219Z,8.26
2023-03-31T06:15:19.183Z,8.28
2023-03-31T06:17:48.184Z,8.32
2023-03-31T06:20:27.001Z,8.41
2023-03-31T06:22:58.224Z,8.51
2023-03-31T06:25:27.356Z,8.59
2023-03-31T06:27:56.912Z,8.65
2023-03-31T06:30:25.636Z,8.71
2023-03-31T06:32:54.655Z,8.76
2023-03-31T06:35:23.460Z,8.82
2023-03-31T06:37:52.489Z,8.93
2023-03-31T06:40:23.044Z,9.02
2023-03-31T06:42:51.616Z,9.07
2023-03-31T06:45:20.603Z,9.13
2023-03-31T06:47:52.591Z,9.28
2023-03-31T06:50:21.982Z,9.42
2023-03-31T06:52:52.808Z,9.47
2023-03-31T06:55:23.430Z,9.54
2023-03-31T06:57:52.975Z,9.56
2023-03-31T07:00:23.165Z,9.62
2023-03-31T07:02:52.941Z,9.69
2023-03-31T07:05:26.910Z,9.72
2023-03-31T07:07:56.382Z,9.77
2023-03-31T07:10:35.458Z,9.88
2023-03-31T07:13:05.726Z,9.94
2023-03-31T07:15:34.800Z,10.03
2023-03-31T07:18:03.363Z,10.10
2023-03-31T07:20:32.902Z,10.17
2023-03-31T07:23:01.407Z,10.29
2023-03-31T07:25:30.050Z,10.40
2023-03-31T07:28:00.177Z,10.52
2023-03-31T07:30:28.845Z,10.62
2023-03-31T07:32:57.631Z,10.70
2023-03-31T07:35:27.017Z,10.81
2023-03-31T07:37:56.178Z,10.89
2023-03-31T07:40:27.717Z,10.99
2023-03-31T07:42:57.257Z,11.10
2023-03-31T07:45:29.199Z,11.23
2023-03-31T07:48:00.478Z,11.38
2023-03-31T07:50:29.502Z,11.55
2023-03-31T07:52:58.074Z,11.71
2023-03-31T07:55:28.431Z,11.85
2023-03-31T07:57:57.320Z,11.95
2023-03-31T08:00:27.586Z,12.09
2023-03-31T08:02:56.370Z,12.20
2023-03-31T08:05:25.362Z,12.31
2023-03-31T08:07:54.473Z,12.41
2023-03-31T08:10:25.477Z,12.47
2023-03-31T08:12:54.868Z,12.56
2023-03-31T08:15:23.704Z,12.64
2023-03-31T08:17:54.349Z,12.70
2023-03-31T08:20:23.037Z,12.84
2023-03-31T08:22:51.867Z,13.03
2023-03-31T08:25:21.399Z,13.20
2023-03-31T08:27:51.135Z,13.42
2023-03-31T08:30:22.036Z,13.63
2023-03-31T08:32:50.996Z,13.67
2023-03-31T08:35:21.238Z,13.76
2023-03-31T08:37:49.998Z,13.81
2023-03-31T08:40:22.400Z,13.93
2023-03-31T08:42:53.130Z,14.06
2023-03-31T08:45:25.476Z,14.14
2023-03-31T08:48:01.105Z,14.20
2023-03-31T08:50:34.736Z,14.21
2023-03-31T08:53:07.234Z,14.24
2023-03-31T08:55:44.336Z,14.31
2023-03-31T08:58:23.597Z,14.31
2023-03-31T09:00:59.058Z,14.38
2023-03-31T09:03:37.273Z,14.39
2023-03-31T09:06:10.902Z,14.38
2023-03-31T09:08:42.733Z,14.30
2023-03-31T09:11:15.829Z,14.23
2023-03-31T09:14:17.566Z,14.16
2023-03-31T09:16:52.891Z,14.14
2023-03-31T09:19:34.619Z,14.15
2023-03-31T09:22:08.285Z,14.13
2023-03-31T09:24:45.390Z,14.15
2023-03-31T09:27:14.674Z,14.16
2023-03-31T09:29:46.697Z,14.20
2023-03-31T09:32:19.033Z,14.22
2023-03-31T09:34:52.704Z,14.26
2023-03-31T09:37:24.840Z,14.30
2023-03-31T09:39:54.163Z,14.43
2023-03-31T09:42:24.011Z,14.48
2023-03-31T09:44:52.862Z,14.51
2023-03-31T09:47:27.430Z,14.61
2023-03-31T09:49:57.518Z,14.67
2023-03-31T09:52:31.848Z,14.69
2023-03-31T09:55:02.922Z,14.72
2023-03-31T09:57:34.759Z,14.72
2023-03-31T10:00:16.832Z,14.75
2023-03-31T10:02:51.579Z,14.74
2023-03-31T10:05:29.138Z,14.76
2023-03-31T10:08:19.660Z,14.82
2023-03-31T10:10:51.546Z,14.86
2023-03-31T10:13:22.220Z,14.93
2023-03-31T10:15:55.134Z,15.11
2023-03-31T10:18:34.830Z,15.37
2023-03-31T10:21:05.868Z,15.53
2023-03-31T10:23:37.184Z,15.63
2023-03-31T10:26:06.273Z,15.83
2023-03-31T10:28:37.493Z,16.22
2023-03-31T10:31:11.461Z,16.60
2023-03-31T10:33:45.821Z,16.85
2023-03-31T10:36:23.384Z,17.10
2023-03-31T10:38:55.145Z,17.20
2023-03-31T10:41:27.656Z,17.33
2023-03-31T10:43:58.363Z,17.35
2023-03-31T10:46:42.284Z,17.42
2023-03-31T10:49:18.177Z,17.60
2023-03-31T10:51:51.876Z,17.91
2023-03-31T10:54:26.101Z,18.14
2023-03-31T10:56:57.925Z,18.31
2023-03-31T10:59:42.548Z,18.54
2023-03-31T11:02:50.300Z,18.72
2023-03-31T11:05:25.741Z,18.76
2023-03-31T11:08:07.026Z,18.70
2023-03-31T11:11:01.572Z,18.81
2023-03-31T11:13:39.668Z,18.83
2023-03-31T11:16:18.880Z,18.69
2023-03-31T11:19:03.612Z,18.49
2023-03-31T11:21:41.300Z,18.33
2023-03-31T11:24:24.626Z,18.12
2023-03-31T11:27:02.756Z,18.12
2023-03-31T11:29:36.630Z,18.14
2023-03-31T11:32:31.180Z,18.19
2023-03-31T11:35:21.422Z,18.20
2023-03-31T11:38:17.476Z,18.30
2023-03-31T11:41:00.766Z,18.39
2023-03-31T11:43:36.416Z,18.52
2023-03-31T11:46:12.384Z,18.53
2023-03-31T11:48:44.784Z,18.49
2023-03-31T11:51:19.291Z,18.29
2023-03-31T11:53:49.667Z,18.03
2023-03-31T11:56:19.916Z,17.91
2023-03-31T11:58:56.423Z,17.82
2023-03-31T12:01:29.173Z,17.85
2023-03-31T12:04:06.619Z,17.91
2023-03-31T12:06:40.016Z,17.91
2023-03-31T12:09:17.262Z,17.89
2023-03-31T12:11:53.310Z,17.81
2023-03-31T12:14:32.385Z,17.72
2023-03-31T12:17:07.336Z,17.65
2023-03-31T12:19:44.018Z,17.69
2023-03-31T12:22:18.695Z,17.89
2023-03-31T12:24:50.664Z,18.04
2023-03-31T12:27:23.213Z,18.20
2023-03-31T12:29:58.870Z,18.32
2023-03-31T12:32:31.751Z,18.58
2023-03-31T12:35:05.946Z,18.64
2023-03-31T12:38:08.161Z,18.66
2023-03-31T12:40:44.705Z,18.59
2023-03-31T12:43:30.086Z,18.76
2023-03-31T12:46:08.164Z,19.05
2023-03-31T12:48:58.405Z,19.21
2023-03-31T12:51:43.878Z,19.09
2023-03-31T12:54:31.139Z,19.00
2023-03-31T12:57:15.524Z,19.04
2023-03-31T12:59:45.240Z,19.23
2023-03-31T13:02:25.133Z,19.75
2023-03-31T13:04:54.138Z,20.08
2023-03-31T13:07:41.398Z,20.33
2023-03-31T13:10:29.025Z,20.74
2023-03-31T13:13:04.728Z,20.72
2023-03-31T13:15:34.462Z,20.37
2023-03-31T13:18:06.703Z,20.30
2023-03-31T13:20:37.861Z,20.49
2023-03-31T13:23:19.894Z,20.37
2023-03-31T13:25:51.782Z,20.07
2023-03-31T13:28:44.902Z,19.92
2023-03-31T13:31:15.208Z,19.81
2023-03-31T13:34:01.055Z,19.59
2023-03-31T13:37:01.413Z,19.36
2023-03-31T13:39:48.440Z,19.11
2023-03-31T13:42:54.090Z,19.08
2023-03-31T13:45:44.784Z,19.17
2023-03-31T13:48:26.707Z,19.35
2023-03-31T13:51:11.095Z,19.37
2023-03-31T13:54:04.205Z,19.58
2023-03-31T13:57:00.484Z,20.23
2023-03-31T13:59:50.661Z,20.92
2023-03-31T14:02:47.848Z,21.39
2023-03-31T14:05:26.854Z,21.72
2023-03-31T14:08:00.106Z,21.93
2023-03-31T14:10:32.092Z,22.06
2023-03-31T14:13:13.124Z,22.17
2023-03-31T14:15:45.004Z,22.23
2023-03-31T14:18:22.079Z,21.89
2023-03-31T14:21:01.132Z,21.32
2023-03-31T14:23:45.052Z,20.77
2023-03-31T14:26:23.740Z,20.57
2023-03-31T14:29:13.837Z,20.87
2023-03-31T14:31:48.786Z,21.03
2023-03-31T14:34:34.664Z,20.86
2023-03-31T14:37:06.070Z,20.79
2023-03-31T14:39:39.063Z,20.56
2023-03-31T14:42:13.163Z,20.52
2023-03-31T14:44:46.866Z,20.37
2023-03-31T14:47:17.412Z,20.03
2023-03-31T14:49:46.664Z,19.60
2023-03-31T14:52:18.707Z,19.34
2023-03-31T14:54:49.540Z,19.17
2023-03-31T14:57:21.786Z,19.03
2023-03-31T14:59:53.993Z,18.93
2023-03-31T15:02:33.024Z,18.83
2023-03-31T15:05:05.750Z,18.62
2023-03-31T15:07:35.830Z,18.42
2023-03-31T15:10:07.985Z,18.27
2023-03-31T15:12:38.390Z,18.22
2023-03-31T15:15:08.476Z,18.15
2023-03-31T15:17:39.845Z,18.10
2023-03-31T15:20:29.749Z,18.03
2023-03-31T15:22:59.529Z,17.95
2023-03-31T15:25:34.360Z,17.82
2023-03-31T15:28:06.752Z,17.71
2023-03-31T15:30:37.557Z,17.62
2023-03-31T15:33:18.939Z,17.54
2023-03-31T15:35:49.180Z,17.42
2023-03-31T15:38:19.027Z,17.29
2023-03-31T15:40:53.788Z,17.21
2023-03-31T15:43:30.914Z,17.16
2023-03-31T15:46:00.976Z,17.07
2023-03-31T15:48:33.805Z,16.94
2023-03-31T15:51:03.805Z,16.83
2023-03-31T15:53:39.219Z,16.76
2023-03-31T15:56:09.634Z,16.71
2023-03-31T15:59:06.834Z,16.67
2023-03-31T16:01:40.170Z,16.64
2023-03-31T16:04:11.439Z,16.63
2023-03-31T16:06:46.851Z,16.60
2023-03-31T16:09:18.680Z,16.55
2023-03-31T16:11:53.754Z,16.51
2023-03-31T16:14:25.973Z,16.46
2023-03-31T16:16:57.356Z,16.42
2023-03-31T16:19:30.723Z,16.40
2023-03-31T16:22:02.266Z,16.37
2023-03-31T16:24:34.176Z,16.35
2023-03-31T16:27:07.856Z,16.31
2023-03-31T16:29:38.158Z,16.31
2023-03-31T16:32:13.766Z,16.30
2023-03-31T16:34:59.454Z,16.28
2023-03-31T16:37:28.987Z,16.24
2023-03-31T16:39:58.571Z,16.22
2023-03-31T16:42:29.069Z,16.16
2023-03-31T16:45:13.062Z,16.08
2023-03-31T16:47:45.486Z,15.96
2023-03-31T16:50:15.766Z,15.86
2023-03-31T16:52:44.488Z,15.75
2023-03-31T16:55:13.272Z,15.66
2023-03-31T16:57:43.498Z,15.56
2023-03-31T17:00:15.863Z,15.49
2023-03-31T17:02:44.763Z,15.41
2023-03-31T17:05:14.025Z,15.35
2023-03-31T17:07:43.517Z,15.28
2023-03-31T17:10:12.946Z,15.21
2023-03-31T17:12:43.419Z,15.14
2023-03-31T17:15:13.399Z,15.11
2023-03-31T17:17:42.327Z,15.11
2023-03-31T17:20:12.643Z,15.10
2023-03-31T17:22:41.824Z,15.12
2023-03-31T17:25:11.454Z,15.14
2023-03-31T17:27:39.976Z,15.13
2023-03-31T17:30:11.039Z,15.11
2023-03-31T17:32:39.880Z,15.05
2023-03-31T17:35:10.404Z,15.04
2023-03-31T17:37:39.716Z,15.03
2023-03-31T17:40:09.931Z,15.01
2023-03-31T17:42:39.072Z,14.98
2023-03-31T17:45:11.152Z,14.91
2023-03-31T17:47:40.016Z,14.85
2023-03-31T17:50:11.281Z,14.79
2023-03-31T17:52:40.581Z,14.77
2023-03-31T17:55:09.804Z,14.75
2023-03-31T17:57:40.663Z,14.73
2023-03-31T18:00:12.254Z,14.71
2023-03-31T18:02:41.059Z,14.68
2023-03-31T18:05:11.541Z,14.67
2023-03-31T18:07:41.537Z,14.65
2023-03-31T18:10:12.058Z,14.66
2023-03-31T18:12:41.403Z,14.66
2023-03-31T18:15:13.034Z,14.67
2023-03-31T18:17:43.405Z,14.71
2023-03-31T18:20:13.103Z,14.77
2023-03-31T18:22:42.225Z,14.84
2023-03-31T18:25:11.846Z,14.86
2023-03-31T18:27:40.714Z,14.89
2023-03-31T18:30:14.603Z,14.87
2023-03-31T18:32:57.081Z,14.87
2023-03-31T18:35:25.941Z,14.89
2023-03-31T18:37:54.626Z,14.87
2023-03-31T18:40:26.429Z,14.85
2023-03-31T18:42:55.097Z,14.84
2023-03-31T18:45:28.060Z,14.83
2023-03-31T18:47:57.211Z,14.83
2023-03-31T18:50:26.220Z,14.82
2023-03-31T18:52:55.239Z,14.77
2023-03-31T18:55:24.252Z,14.73
2023-03-31T18:57:53.181Z,14.66
2023-03-31T19:00:22.705Z,14.61
2023-03-31T19:02:53.733Z,14.54
2023-03-31T19:05:22.695Z,14.50
2023-03-31T19:07:51.570Z,14.47
2023-03-31T19:10:20.576Z,14.43
2023-03-31T19:12:49.837Z,14.40
2023-03-31T19:15:19.540Z,14.37
2023-03-31T19:17:48.014Z,14.34
2023-03-31T19:20:18.433Z,14.32
2023-03-31T19:22:49.421Z,14.27
2023-03-31T19:25:19.729Z,14.22
2023-03-31T19:27:48.637Z,14.19
2023-03-31T19:30:19.045Z,14.15
2023-03-31T19:32:48.999Z,14.12
2023-03-31T19:35:20.288Z,14.09
2023-03-31T19:37:49.912Z,14.05
2023-03-31T19:40:18.809Z,14.03
2023-03-31T19:42:47.635Z,13.99
2023-03-31T19:45:16.420Z,13.94
2023-03-31T19:47:45.102Z,13.87
2023-03-31T19:50:14.291Z,13.84
2023-03-31T19:52:46.843Z,13.80
2023-03-31T19:55:17.670Z,13.77
2023-03-31T19:57:46.184Z,13.77
2023-03-31T20:00:18.308Z,13.77
2023-03-31T20:02:48.321Z,13.75
2023-03-31T20:05:19.755Z,13.69
2023-03-31T20:07:50.469Z,13.67
2023-03-31T20:10:19.650Z,13.63
2023-03-31T20:12:48.125Z,13.61
2023-03-31T20:15:17.136Z,13.61
2023-03-31T20:17:46.679Z,13.57
2023-03-31T20:20:15.125Z,13.51
2023-03-31T20:22:43.984Z,13.47
2023-03-31T20:25:14.077Z,13.45
2023-03-31T20:27:43.567Z,13.45
2023-03-31T20:30:13.410Z,13.43
2023-03-31T20:32:42.586Z,13.41
2023-03-31T20:35:11.030Z,13.34
2023-03-31T20:37:39.667Z,13.27
2023-03-31T20:40:09.521Z,13.22
2023-03-31T20:42:39.680Z,13.18
2023-03-31T20:45:18.578Z,13.14
2023-03-31T20:47:47.366Z,13.10
2023-03-31T20:50:16.861Z,13.09
2023-03-31T20:52:47.636Z,13.05
2023-03-31T20:55:16.982Z,13.01
2023-03-31T20:57:48.383Z,12.97
2023-03-31T21:00:18.417Z,12.94
2023-03-31T21:02:47.378Z,12.91
2023-03-31T21:05:17.988Z,12.87
2023-03-31T21:07:46.675Z,12.85
2023-03-31T21:10:15.159Z,12.84
2023-03-31T21:12:46.319Z,12.83
2023-03-31T21:15:16.403Z,12.82
2023-03-31T21:17:45.101Z,12.80
2023-03-31T21:20:13.967Z,12.78
2023-03-31T21:22:42.797Z,12.72
2023-03-31T21:25:11.714Z,12.66
2023-03-31T21:27:40.421Z,12.60
2023-03-31T21:30:10.528Z,12.56
2023-03-31T21:32:41.135Z,12.49
2023-03-31T21:35:10.798Z,12.42
2023-03-31T21:37:39.440Z,12.33
2023-03-31T21:40:09.150Z,12.22
2023-03-31T21:42:37.622Z,12.09
2023-03-31T21:45:06.798Z,11.92
2023-03-31T21:47:35.216Z,11.80
2023-03-31T21:50:06.582Z,11.70
2023-03-31T21:52:35.513Z,11.60
2023-03-31T21:55:04.094Z,11.53
2023-03-31T21:57:32.840Z,11.49
2023-03-31T22:00:01.747Z,11.43
2023-03-31T22:02:34.078Z,11.38
2023-03-31T22:05:03.358Z,11.34
2023-03-31T22:07:36.591Z,11.26
2023-03-31T22:10:05.703Z,11.21
2023-03-31T22:12:34.189Z,11.12
2023-03-31T22:15:03.010Z,11.06
2023-03-31T22:17:32.214Z,11.01
2023-03-31T22:20:01.082Z,10.94
2023-03-31T22:22:30.008Z,10.91
2023-03-31T22:24:59.897Z,10.83
2023-03-31T22:27:28.408Z,10.76
2023-03-31T22:29:57.435Z,10.70
2023-03-31T22:32:26.706Z,10.65
2023-03-31T22:34:58.162Z,10.60
2023-03-31T22:37:27.217Z,10.59
2023-03-31T22:39:56.081Z,10.56
2023-03-31T22:42:26.636Z,10.56
2023-03-31T22:44:55.512Z,10.53
2023-03-31T22:47:24.426Z,10.52
2023-03-31T22:49:53.009Z,10.51
2023-03-31T22:52:21.888Z,10.50
2023-03-31T22:54:50.994Z,10.44
2023-03-31T22:57:19.625Z,10.39
2023-03-31T22:59:50.472Z,10.37
2023-03-31T23:02:19.278Z,10.34
2023-03-31T23:04:48.109Z,10.33
2023-03-31T23:07:17.071Z,10.28
2023-03-31T23:09:46.027Z,10.26
2023-03-31T23:12:14.766Z,10.23
2023-03-31T23:14:43.505Z,10.19
2023-03-31T23:17:14.147Z,10.17
2023-03-31T23:19:43.317Z,10.14
2023-03-31T23:22:12.097Z,10.11
2023-03-31T23:24:40.785Z,10.09
2023-03-31T23:27:09.618Z,10.09
2023-03-31T23:29:38.741Z,10.06
2023-03-31T23:32:07.311Z,10.04
2023-03-31T23:34:41.542Z,10.05
2023-03-31T23:37:10.823Z,10.05
2023-03-31T23:39:39.872Z,10.04
2023-03-31T23:42:08.691Z,10.01
2023-03-31T23:44:38.305Z,9.99
2023-03-31T23:47:07.297Z,9.98
2023-03-31T23:49:37.519Z,9.97
2023-03-31T23:52:06.648Z,9.93
2023-03-31T23:54:35.373Z,9.89
2023-03-31T23:57:04.303Z,9.84
2023-03-31T23:59:32.852Z,9.80
